createdAt,value
2022-10-19T00:03:01.777Z,0.90
2022-10-19T00:06:27.460Z,1.13
2022-10-19T00:09:39.846Z,0.98
2022-10-19T00:12:51.524Z,1.40
2022-10-19T00:16:04.240Z,1.40
2022-10-19T00:19:20.872Z,1.30
2022-10-19T00:22:32.721Z,1.33
2022-10-19T00:25:44.949Z,1.70
2022-10-19T00:29:00.781Z,1.85
2022-10-19T00:32:12.985Z,2.53
2022-10-19T00:35:24.966Z,2.68
2022-10-19T00:38:36.701Z,3.38
2022-10-19T00:41:50.318Z,2.85
2022-10-19T00:45:21.332Z,2.73
2022-10-19T00:48:36.958Z,3.20
2022-10-19T00:51:51.536Z,3.20
2022-10-19T00:55:04.935Z,3.78
2022-10-19T00:58:17.153Z,3.40
2022-10-19T01:01:32.838Z,3.93
2022-10-19T01:04:49.027Z,3.60
2022-10-19T01:08:01.760Z,3.75
2022-10-19T01:11:34.310Z,3.90
2022-10-19T01:14:54.698Z,4.00
2022-10-19T01:18:15.933Z,3.93
2022-10-19T01:21:34.422Z,5.08
2022-10-19T01:25:06.225Z,3.85
2022-10-19T01:28:35.649Z,4.65
2022-10-19T01:31:53.156Z,5.00
2022-10-19T01:35:10.015Z,4.43
2022-10-19T01:38:33.288Z,4.58
2022-10-19T01:41:51.815Z,4.88
2022-10-19T01:45:08.928Z,5.53
2022-10-19T01:48:25.446Z,7.08
2022-10-19T01:51:42.101Z,6.15
2022-10-19T01:54:58.144Z,6.30
2022-10-19T01:58:13.988Z,6.18
2022-10-19T02:01:29.028Z,5.98
2022-10-19T02:04:41.645Z,6.60
2022-10-19T02:07:59.195Z,7.00
2022-10-19T02:11:12.052Z,7.10
2022-10-19T02:14:28.461Z,6.98
2022-10-19T02:17:46.413Z,6.83
2022-10-19T02:20:58.385Z,7.38
2022-10-19T02:24:10.590Z,7.78
2022-10-19T02:27:23.018Z,8.20
2022-10-19T02:30:34.808Z,8.00
2022-10-19T02:33:46.952Z,7.98
2022-10-19T02:36:59.435Z,7.93
2022-10-19T02:40:14.599Z,7.40
2022-10-19T02:43:28.044Z,7.73
2022-10-19T02:46:44.940Z,8.30
2022-10-19T02:49:57.779Z,7.58
2022-10-19T02:53:09.353Z,8.08
2022-10-19T02:56:20.959Z,7.78
2022-10-19T02:59:35.877Z,7.90
2022-10-19T03:02:48.204Z,8.35
2022-10-19T03:06:01.000Z,8.30
2022-10-19T03:09:13.332Z,8.35
2022-10-19T03:12:24.910Z,9.53
2022-10-19T03:15:36.616Z,9.18
2022-10-19T03:18:48.472Z,8.70
2022-10-19T03:22:00.208Z,8.80
2022-10-19T03:25:13.288Z,8.70
2022-10-19T03:28:24.960Z,10.28
2022-10-19T03:31:36.775Z,11.53
2022-10-19T03:34:48.338Z,10.80
2022-10-19T03:37:59.903Z,11.55
2022-10-19T03:41:15.200Z,12.25
2022-10-19T03:44:27.214Z,12.18
2022-10-19T03:47:38.894Z,12.28
2022-10-19T03:50:50.489Z,12.55
2022-10-19T03:54:06.193Z,12.43
2022-10-19T03:57:18.516Z,13.70
2022-10-19T04:00:30.446Z,14.98
2022-10-19T04:03:42.079Z,14.78
2022-10-19T04:06:55.378Z,15.30
2022-10-19T04:10:07.119Z,15.15
2022-10-19T04:13:18.708Z,16.20
2022-10-19T04:16:32.614Z,16.70
2022-10-19T04:19:44.291Z,16.75
2022-10-19T04:22:57.833Z,17.15
2022-10-19T04:26:11.754Z,18.10
2022-10-19T04:29:29.482Z,17.75
2022-10-19T04:32:39.791Z,17.80
2022-10-19T04:35:51.294Z,18.88
2022-10-19T04:39:02.899Z,18.03
2022-10-19T04:42:14.458Z,18.18
2022-10-19T04:45:25.998Z,18.63
2022-10-19T04:48:37.997Z,18.30
2022-10-19T04:51:49.575Z,18.38
2022-10-19T04:55:01.195Z,18.23
2022-10-19T04:58:12.836Z,16.65
2022-10-19T05:01:26.699Z,16.55
2022-10-19T05:04:41.817Z,17.15
2022-10-19T05:07:54.345Z,17.70
2022-10-19T05:11:11.882Z,15.83
2022-10-19T05:14:23.418Z,14.75
2022-10-19T05:17:37.471Z,15.88
2022-10-19T05:20:49.164Z,17.25
2022-10-19T05:24:02.193Z,16.28
2022-10-19T05:27:14.045Z,16.80
2022-10-19T05:30:26.307Z,16.28
2022-10-19T05:33:38.144Z,16.80
2022-10-19T05:36:49.738Z,15.85
2022-10-19T05:40:01.681Z,16.85
2022-10-19T05:43:14.560Z,16.63
2022-10-19T05:46:26.421Z,16.05
2022-10-19T05:49:38.281Z,16.75
2022-10-19T05:52:49.920Z,16.78
2022-10-19T05:56:01.718Z,16.48
2022-10-19T05:59:17.928Z,16.80
2022-10-19T06:02:29.725Z,17.43
2022-10-19T06:05:43.562Z,15.18
2022-10-19T06:08:55.954Z,16.60
2022-10-19T06:12:07.756Z,15.40
2022-10-19T06:15:19.725Z,14.53
2022-10-19T06:18:31.377Z,13.40
2022-10-19T06:21:45.678Z,13.53
2022-10-19T06:24:57.351Z,13.90
2022-10-19T06:28:09.714Z,15.83
2022-10-19T06:31:21.939Z,15.43
2022-10-19T06:34:33.558Z,16.38
2022-10-19T06:37:45.242Z,17.53
2022-10-19T06:40:56.957Z,14.63
2022-10-19T06:44:09.681Z,14.90
2022-10-19T06:47:21.324Z,15.08
2022-10-19T06:50:32.921Z,13.78
2022-10-19T06:53:44.592Z,12.15
2022-10-19T06:56:56.092Z,12.33
2022-10-19T07:00:08.569Z,11.20
2022-10-19T07:03:20.362Z,11.73
2022-10-19T07:06:34.252Z,10.65
2022-10-19T07:09:45.820Z,9.30
2022-10-19T07:12:57.590Z,9.80
2022-10-19T07:16:17.592Z,13.25
2022-10-19T07:19:29.452Z,11.95
2022-10-19T07:22:41.128Z,10.78
2022-10-19T07:25:53.892Z,9.35
2022-10-19T07:29:05.838Z,8.80
2022-10-19T07:32:17.538Z,8.70
2022-10-19T07:35:29.233Z,9.50
2022-10-19T07:38:41.727Z,11.80
2022-10-19T07:41:53.713Z,10.80
2022-10-19T07:45:05.248Z,11.60
2022-10-19T07:48:16.968Z,11.45
2022-10-19T07:51:30.230Z,11.83
2022-10-19T07:54:42.008Z,12.50
2022-10-19T07:57:56.133Z,13.35
2022-10-19T08:01:13.539Z,13.48
2022-10-19T08:07:41.776Z,12.80
2022-10-19T08:10:53.310Z,12.08
2022-10-19T08:14:06.664Z,10.90
2022-10-19T08:17:20.563Z,9.93
2022-10-19T08:20:32.517Z,9.78
2022-10-19T08:23:44.149Z,10.28
2022-10-19T08:26:56.031Z,9.15
2022-10-19T08:30:08.048Z,8.10
2022-10-19T08:33:19.730Z,8.30
2022-10-19T08:36:32.531Z,7.25
2022-10-19T08:39:44.323Z,11.08
2022-10-19T08:43:04.722Z,10.53
2022-10-19T08:46:22.671Z,8.20
2022-10-19T08:49:37.597Z,6.85
2022-10-19T08:52:52.087Z,7.05
2022-10-19T08:56:49.793Z,6.98
2022-10-19T08:59:56.449Z,6.95
2022-10-19T09:03:23.139Z,4.78
2022-10-19T09:06:36.358Z,3.88
2022-10-19T09:09:53.531Z,13.80
2022-10-19T09:16:22.473Z,7.15
2022-10-19T09:22:54.517Z,5.50
2022-10-19T09:26:09.341Z,5.73
2022-10-19T09:29:27.882Z,5.13
2022-10-19T09:32:42.442Z,4.58
2022-10-19T09:35:55.237Z,5.03
2022-10-19T09:39:09.576Z,4.65
2022-10-19T09:42:29.475Z,3.85
2022-10-19T09:45:47.422Z,4.43
2022-10-19T09:48:59.911Z,3.05
2022-10-19T09:52:13.793Z,2.65
2022-10-19T09:55:45.749Z,2.90
2022-10-19T09:59:00.016Z,2.98
2022-10-19T10:02:26.185Z,3.28
2022-10-19T10:05:43.728Z,3.10
2022-10-19T10:08:59.802Z,3.25
2022-10-19T10:12:13.674Z,3.50
2022-10-19T10:15:46.330Z,3.45
2022-10-19T10:19:05.038Z,3.80
2022-10-19T10:22:32.059Z,4.45
2022-10-19T10:25:44.271Z,3.60
2022-10-19T10:35:33.032Z,2.40
2022-10-19T10:38:47.855Z,3.40
2022-10-19T10:42:00.121Z,2.45
2022-10-19T10:45:20.001Z,2.80
2022-10-19T10:48:37.644Z,4.18
2022-10-19T10:51:54.434Z,6.03
2022-10-19T10:55:11.371Z,2.48
2022-10-19T10:58:29.618Z,2.13
2022-10-19T11:01:45.734Z,2.20
2022-10-19T11:05:03.339Z,1.95
2022-10-19T11:08:25.215Z,2.28
2022-10-19T11:11:43.130Z,2.43
2022-10-19T11:15:00.869Z,1.90
2022-10-19T11:18:23.761Z,2.08
2022-10-19T11:21:40.964Z,5.98
2022-10-19T11:25:08.837Z,6.38
2022-10-19T11:28:38.911Z,1.80
2022-10-19T11:31:55.110Z,1.70
2022-10-19T11:38:22.040Z,1.70
2022-10-19T11:41:40.085Z,1.90
2022-10-19T11:45:03.582Z,2.13
2022-10-19T11:48:52.918Z,2.13
2022-10-19T11:52:10.825Z,2.43
2022-10-19T11:55:32.765Z,1.95
2022-10-19T11:58:55.084Z,2.00
2022-10-19T12:02:16.618Z,2.00
2022-10-19T12:05:33.743Z,2.38
2022-10-19T12:09:00.840Z,2.50
2022-10-19T12:12:37.634Z,1.80
2022-10-19T12:15:54.114Z,1.93
2022-10-19T12:19:08.871Z,1.85
2022-10-19T12:22:25.628Z,2.40
2022-10-19T12:25:38.408Z,1.98
2022-10-19T12:28:56.734Z,2.23
2022-10-19T12:32:10.837Z,2.40
2022-10-19T12:35:40.013Z,2.80
2022-10-19T12:39:00.939Z,2.60
2022-10-19T12:42:20.187Z,2.93
2022-10-19T12:45:37.189Z,2.58
2022-10-19T12:52:00.242Z,2.15
2022-10-19T12:55:34.881Z,2.50
2022-10-19T12:58:57.631Z,2.15
2022-10-19T13:02:20.812Z,2.63
2022-10-19T13:05:34.869Z,2.83
2022-10-19T13:08:50.470Z,1.85
2022-10-19T13:12:47.787Z,2.63
2022-10-19T13:16:00.587Z,2.18
2022-10-19T13:19:27.868Z,2.60
2022-10-19T13:22:39.570Z,2.40
2022-10-19T13:25:51.678Z,2.30
2022-10-19T13:29:03.825Z,2.93
2022-10-19T13:32:47.464Z,2.48
2022-10-19T13:36:13.330Z,2.95
2022-10-19T13:39:25.298Z,2.65
2022-10-19T13:42:37.967Z,2.80
2022-10-19T13:45:50.179Z,2.85
2022-10-19T13:49:30.276Z,2.73
2022-10-19T13:53:05.508Z,3.00
2022-10-19T13:56:49.758Z,2.50
2022-10-19T14:00:28.130Z,3.08
2022-10-19T14:04:16.277Z,3.00
2022-10-19T14:07:33.911Z,2.40
2022-10-19T14:11:00.774Z,2.70
2022-10-19T14:17:37.683Z,3.00
2022-10-19T14:21:05.212Z,3.40
2022-10-19T14:24:36.148Z,3.10
2022-10-19T14:27:48.581Z,3.08
2022-10-19T14:31:06.514Z,3.10
2022-10-19T14:34:20.087Z,3.00
2022-10-19T14:37:33.924Z,2.80
2022-10-19T14:40:47.453Z,2.95
2022-10-19T14:43:59.752Z,3.10
2022-10-19T14:47:27.468Z,3.23
2022-10-19T14:50:47.933Z,2.80
2022-10-19T14:54:04.358Z,2.85
2022-10-19T14:57:23.272Z,3.30
2022-10-19T15:00:38.121Z,3.30
2022-10-19T15:03:53.052Z,3.00
2022-10-19T15:07:08.879Z,2.90
2022-10-19T15:10:31.289Z,3.35
2022-10-19T15:13:48.116Z,2.93
2022-10-19T15:17:03.921Z,3.78
2022-10-19T15:20:30.311Z,3.48
2022-10-19T15:23:47.146Z,3.00
2022-10-19T15:27:09.201Z,2.98
2022-10-19T15:30:30.738Z,3.00
2022-10-19T15:33:49.573Z,3.18
2022-10-19T15:37:08.415Z,4.03
2022-10-19T15:40:29.848Z,3.95
2022-10-19T15:43:51.482Z,3.63
2022-10-19T15:47:27.342Z,3.90
2022-10-19T15:50:45.134Z,3.53
2022-10-19T15:53:59.151Z,4.13
2022-10-19T15:57:33.218Z,3.65
2022-10-19T16:00:46.809Z,3.78
2022-10-19T16:03:59.565Z,3.73
2022-10-19T16:07:12.798Z,3.98
2022-10-19T16:10:28.246Z,3.90
2022-10-19T16:13:39.970Z,4.23
2022-10-19T16:16:59.586Z,4.15
2022-10-19T16:23:22.075Z,4.30
2022-10-19T16:26:34.195Z,3.50
2022-10-19T16:29:46.495Z,3.68
2022-10-19T16:32:58.095Z,3.73
2022-10-19T16:36:17.807Z,2.90
2022-10-19T16:39:29.565Z,3.28
2022-10-19T16:42:41.340Z,2.80
2022-10-19T16:45:53.138Z,2.90
2022-10-19T16:49:05.063Z,3.00
2022-10-19T16:52:20.375Z,3.68
2022-10-19T16:55:34.796Z,4.30
2022-10-19T16:58:47.559Z,4.25
2022-10-19T17:01:59.463Z,3.33
2022-10-19T17:05:12.287Z,3.78
2022-10-19T17:08:36.622Z,3.45
2022-10-19T17:11:49.270Z,3.73
2022-10-19T17:23:00.617Z,4.28
2022-10-19T17:26:14.426Z,4.15
2022-10-19T17:29:27.677Z,3.78
2022-10-19T17:32:42.438Z,4.18
2022-10-19T17:35:54.788Z,4.03
2022-10-19T17:39:09.103Z,5.95
2022-10-19T17:42:20.901Z,4.30
2022-10-19T17:45:32.842Z,3.90
2022-10-19T17:48:46.890Z,3.60
2022-10-19T17:51:59.653Z,3.75
2022-10-19T17:55:13.697Z,3.53
2022-10-19T18:05:16.386Z,3.48
2022-10-19T18:08:28.543Z,3.10
2022-10-19T18:11:43.542Z,3.33
2022-10-19T18:14:55.429Z,3.35
2022-10-19T18:18:07.617Z,3.10
2022-10-19T18:21:24.544Z,3.13
2022-10-19T18:24:36.651Z,2.95
2022-10-19T18:27:48.402Z,3.05
2022-10-19T18:31:00.205Z,3.45
2022-10-19T18:34:16.908Z,3.48
2022-10-19T18:37:29.182Z,3.48
2022-10-19T18:40:43.520Z,4.03
2022-10-19T18:44:01.421Z,3.38
2022-10-19T18:47:13.589Z,3.78
2022-10-19T18:50:25.449Z,3.58
2022-10-19T18:53:38.252Z,4.15
2022-10-19T18:56:49.960Z,4.30
2022-10-19T19:00:01.666Z,3.70
2022-10-19T19:03:14.438Z,4.85
2022-10-19T19:06:29.294Z,3.75
2022-10-19T19:09:42.141Z,4.20
2022-10-19T19:12:57.033Z,4.08
2022-10-19T19:16:09.866Z,4.73
2022-10-19T19:19:24.490Z,5.38
2022-10-19T19:22:36.994Z,4.48
2022-10-19T19:25:49.079Z,4.50
2022-10-19T19:29:01.476Z,5.53
2022-10-19T19:32:13.641Z,5.23
2022-10-19T19:35:25.358Z,5.05
2022-10-19T19:38:38.302Z,4.98
2022-10-19T19:41:50.183Z,8.38
2022-10-19T19:45:02.209Z,8.43
2022-10-19T19:48:16.128Z,8.30
2022-10-19T19:51:28.430Z,5.55
2022-10-19T19:54:40.683Z,6.08
2022-10-19T19:57:54.423Z,5.45
2022-10-19T20:01:07.362Z,5.68
2022-10-19T20:04:20.061Z,5.90
2022-10-19T20:07:31.801Z,6.08
2022-10-19T20:10:47.724Z,6.08
2022-10-19T20:14:00.241Z,6.53
2022-10-19T20:17:11.937Z,6.30
2022-10-19T20:20:23.970Z,6.75
2022-10-19T20:23:36.786Z,6.85
2022-10-19T20:26:48.675Z,7.00
2022-10-19T20:30:01.786Z,6.55
2022-10-19T20:33:13.579Z,6.58
2022-10-19T20:36:27.975Z,6.80
2022-10-19T20:39:41.395Z,6.83
2022-10-19T20:42:53.070Z,6.33
2022-10-19T20:46:12.551Z,6.73
2022-10-19T20:49:24.338Z,6.90
2022-10-19T20:52:36.354Z,6.45
2022-10-19T20:55:48.462Z,6.50
2022-10-19T20:59:04.724Z,7.33
2022-10-19T21:02:18.548Z,6.88
2022-10-19T21:05:30.244Z,7.68
2022-10-19T21:08:43.324Z,7.65
2022-10-19T21:11:56.781Z,7.55
2022-10-19T21:15:08.775Z,6.90
2022-10-19T21:18:23.369Z,7.10
2022-10-19T21:21:37.488Z,7.18
2022-10-19T21:24:49.331Z,6.68
2022-10-19T21:28:01.150Z,6.05
2022-10-19T21:31:14.400Z,6.25
2022-10-19T21:34:29.488Z,5.90
2022-10-19T21:37:41.141Z,6.08
2022-10-19T21:40:52.906Z,6.08
2022-10-19T21:44:04.921Z,6.33
2022-10-19T21:47:16.536Z,5.90
2022-10-19T21:50:28.237Z,6.30
2022-10-19T21:53:39.940Z,6.03
2022-10-19T21:56:53.147Z,5.53
2022-10-19T22:00:05.042Z,5.68
2022-10-19T22:03:18.579Z,5.93
2022-10-19T22:06:30.847Z,5.45
2022-10-19T22:09:42.614Z,5.38
2022-10-19T22:12:54.315Z,6.10
2022-10-19T22:16:13.261Z,6.00
2022-10-19T22:19:26.298Z,5.95
2022-10-19T22:22:38.248Z,5.83
2022-10-19T22:25:50.434Z,6.10
2022-10-19T22:29:03.240Z,6.15
2022-10-19T22:32:14.947Z,5.85
2022-10-19T22:35:26.704Z,5.63
2022-10-19T22:38:38.915Z,6.00
2022-10-19T22:42:57.281Z,5.13
2022-10-19T22:46:21.006Z,5.25
2022-10-19T22:49:33.150Z,5.80
2022-10-19T22:52:44.946Z,5.63
2022-10-19T22:55:57.231Z,4.88
2022-10-19T22:59:12.906Z,4.18
2022-10-19T23:02:24.766Z,3.98
2022-10-19T23:05:36.584Z,4.03
2022-10-19T23:08:48.571Z,4.20
2022-10-19T23:12:00.384Z,3.75
2022-10-19T23:15:14.748Z,3.30
2022-10-19T23:18:26.603Z,3.30
2022-10-19T23:21:38.368Z,3.00
2022-10-19T23:24:50.087Z,3.40
2022-10-19T23:28:01.781Z,2.90
2022-10-19T23:31:16.496Z,2.98
2022-10-19T23:34:28.378Z,3.00
2022-10-19T23:37:41.088Z,2.93
2022-10-19T23:40:53.197Z,2.50
2022-10-19T23:44:04.738Z,2.73
2022-10-19T23:47:16.274Z,2.73
2022-10-19T23:50:27.929Z,2.75
2022-10-19T23:53:42.712Z,3.08
2022-10-19T23:56:54.354Z,3.40
